createdAt,value
2022-09-28T00:03:45.664Z,4.17
2022-09-28T00:08:43.121Z,4.28
2022-09-28T00:13:40.857Z,2.25
2022-09-28T00:18:35.601Z,5.97
2022-09-28T00:23:29.883Z,5.22
2022-09-28T00:28:23.129Z,3.88
2022-09-28T00:33:16.638Z,3.33
2022-09-28T00:38:10.835Z,4.20
2022-09-28T00:43:19.063Z,2.88
2022-09-28T00:48:13.059Z,2.17
2022-09-28T00:53:19.316Z,4.10
2022-09-28T00:58:14.716Z,4.90
2022-09-28T01:03:08.433Z,4.88
2022-09-28T01:08:03.316Z,5.00
2022-09-28T01:12:56.953Z,5.65
2022-09-28T01:17:57.144Z,5.63
2022-09-28T01:23:33.502Z,4.20
2022-09-28T01:28:29.576Z,6.60
2022-09-28T01:33:28.971Z,6.78
2022-09-28T01:38:34.102Z,4.45
2022-09-28T01:43:29.541Z,4.40
2022-09-28T01:48:27.711Z,4.40
2022-09-28T01:53:23.990Z,4.07
2022-09-28T01:58:33.592Z,3.67
2022-09-28T02:03:37.268Z,3.40
2022-09-28T02:08:34.133Z,3.65
2022-09-28T02:13:42.452Z,3.38
2022-09-28T02:18:38.700Z,3.50
2022-09-28T02:23:31.651Z,3.70
2022-09-28T02:28:25.332Z,3.38
2022-09-28T02:33:39.117Z,3.70
2022-09-28T02:38:32.954Z,3.70
2022-09-28T02:43:53.070Z,3.70
2022-09-28T02:49:21.043Z,3.72
2022-09-28T02:54:53.266Z,3.20
2022-09-28T02:59:58.284Z,3.50
2022-09-28T03:05:13.840Z,3.92
2022-09-28T03:10:14.846Z,4.53
2022-09-28T03:15:36.695Z,4.68
2022-09-28T03:20:31.635Z,5.28
2022-09-28T03:25:25.205Z,4.90
2022-09-28T03:30:23.511Z,7.90
2022-09-28T03:35:17.623Z,7.25
2022-09-28T03:40:11.610Z,8.05
2022-09-28T03:45:07.578Z,8.27
2022-09-28T03:50:02.590Z,7.13
2022-09-28T03:54:56.053Z,6.80
2022-09-28T03:59:49.602Z,7.68
2022-09-28T04:04:42.689Z,6.05
2022-09-28T04:09:36.606Z,6.90
2022-09-28T04:14:29.756Z,7.70
2022-09-28T04:19:23.481Z,5.65
2022-09-28T04:24:34.759Z,5.65
2022-09-28T04:29:28.573Z,5.45
2022-09-28T04:34:25.048Z,5.32
2022-09-28T04:39:20.253Z,5.78
2022-09-28T04:44:16.920Z,5.87
2022-09-28T04:49:12.855Z,4.57
2022-09-28T04:54:20.675Z,5.40
2022-09-28T04:59:14.557Z,5.22
2022-09-28T05:04:09.441Z,7.43
2022-09-28T05:09:13.551Z,10.75
2022-09-28T05:14:06.842Z,11.95
2022-09-28T05:19:00.641Z,10.00
2022-09-28T05:23:57.617Z,12.10
2022-09-28T05:28:51.554Z,9.05
2022-09-28T05:34:02.906Z,6.50
2022-09-28T05:38:56.761Z,5.80
2022-09-28T05:43:52.730Z,5.38
2022-09-28T05:48:46.907Z,5.80
2022-09-28T05:53:40.718Z,5.65
2022-09-28T05:58:34.638Z,5.30
2022-09-28T06:03:29.526Z,5.50
2022-09-28T06:08:23.256Z,6.20
2022-09-28T06:13:25.400Z,7.05
2022-09-28T06:18:19.079Z,7.93
2022-09-28T06:23:27.924Z,8.63
2022-09-28T06:28:21.684Z,9.68
2022-09-28T06:33:16.857Z,7.85
2022-09-28T06:38:09.995Z,5.72
2022-09-28T06:43:33.523Z,5.90
2022-09-28T06:48:36.373Z,9.15
2022-09-28T06:53:31.193Z,6.95
2022-09-28T06:58:46.521Z,7.30
2022-09-28T07:03:41.436Z,6.15
2022-09-28T07:09:29.931Z,6.53
2022-09-28T07:14:48.466Z,8.80
2022-09-28T07:19:42.810Z,6.13
2022-09-28T07:24:36.307Z,5.85
2022-09-28T07:29:48.577Z,6.72
2022-09-28T07:34:58.916Z,6.75
2022-09-28T07:40:35.498Z,5.00
2022-09-28T07:45:30.895Z,5.88
2022-09-28T07:50:24.427Z,5.20
2022-09-28T08:00:54.895Z,4.32
2022-09-28T08:05:48.668Z,5.55
2022-09-28T08:10:46.945Z,5.20
2022-09-28T08:16:08.720Z,4.05
2022-09-28T08:21:41.372Z,3.50
2022-09-28T08:26:35.208Z,3.65
2022-09-28T08:31:29.549Z,3.50
2022-09-28T08:36:37.451Z,3.83
2022-09-28T08:42:28.094Z,3.42
2022-09-28T08:48:10.074Z,3.30
2022-09-28T08:53:43.961Z,6.28
2022-09-28T08:58:56.836Z,3.60
2022-09-28T09:03:51.197Z,4.63
2022-09-28T09:09:34.108Z,5.95
2022-09-28T09:14:40.604Z,7.03
2022-09-28T09:19:45.979Z,7.32
2022-09-28T09:24:53.430Z,5.97
2022-09-28T09:29:49.753Z,7.30
2022-09-28T09:35:07.462Z,6.00
2022-09-28T09:40:36.544Z,6.13
2022-09-28T09:45:47.723Z,5.53
2022-09-28T09:51:07.124Z,6.00
2022-09-28T09:56:11.223Z,5.80
2022-09-28T10:01:28.291Z,5.57
2022-09-28T10:06:41.007Z,5.53
2022-09-28T10:11:43.258Z,5.18
2022-09-28T10:16:45.590Z,5.13
2022-09-28T10:21:47.561Z,4.63
2022-09-28T10:26:50.334Z,3.17
2022-09-28T10:31:48.436Z,3.17
2022-09-28T10:37:01.411Z,3.92
2022-09-28T10:42:04.484Z,2.83
2022-09-28T10:47:03.073Z,5.75
2022-09-28T10:52:00.878Z,3.85
2022-09-28T10:57:04.822Z,2.40
2022-09-28T11:02:13.548Z,2.90
2022-09-28T11:07:26.537Z,2.35
2022-09-28T11:12:23.226Z,2.47
2022-09-28T11:17:28.088Z,2.80
2022-09-28T11:22:23.703Z,2.40
2022-09-28T11:27:27.605Z,3.17
2022-09-28T11:32:23.384Z,2.70
2022-09-28T11:38:12.921Z,2.65
2022-09-28T11:43:45.947Z,2.67
2022-09-28T11:48:48.015Z,4.18
2022-09-28T11:53:52.275Z,3.78
2022-09-28T11:58:49.568Z,3.13
2022-09-28T12:03:51.189Z,4.43
2022-09-28T12:08:49.979Z,3.97
2022-09-28T12:14:22.715Z,6.10
2022-09-28T12:19:47.768Z,4.18
2022-09-28T12:24:45.083Z,4.20
2022-09-28T12:29:42.431Z,3.63
2022-09-28T12:35:15.641Z,3.42
2022-09-28T12:40:26.782Z,3.17
2022-09-28T12:46:10.431Z,3.88
2022-09-28T12:51:10.156Z,3.00
2022-09-28T12:56:13.403Z,2.30
2022-09-28T13:01:36.273Z,2.28
2022-09-28T13:06:37.460Z,1.95
2022-09-28T13:11:42.582Z,2.60
2022-09-28T13:16:58.395Z,2.50
2022-09-28T13:22:01.871Z,2.97
2022-09-28T13:26:57.866Z,2.50
2022-09-28T13:31:54.561Z,2.80
2022-09-28T13:37:07.871Z,2.28
2022-09-28T13:42:02.617Z,2.55
2022-09-28T13:47:20.501Z,2.10
2022-09-28T13:52:37.951Z,2.50
2022-09-28T13:57:44.248Z,2.70
2022-09-28T14:02:48.010Z,2.22
2022-09-28T14:07:41.432Z,2.00
2022-09-28T14:12:34.556Z,2.33
2022-09-28T14:17:31.635Z,3.08
2022-09-28T14:22:58.487Z,4.18
2022-09-28T14:28:26.671Z,2.50
2022-09-28T14:33:19.912Z,2.95
2022-09-28T14:38:36.929Z,2.15
2022-09-28T14:43:45.624Z,2.60
2022-09-28T14:58:34.145Z,2.92
2022-09-28T15:03:30.255Z,2.20
2022-09-28T15:08:24.216Z,2.45
2022-09-28T15:13:17.432Z,2.65
2022-09-28T15:18:19.897Z,2.38
2022-09-28T15:23:35.547Z,3.45
2022-09-28T15:28:29.862Z,2.88
2022-09-28T15:33:49.512Z,3.65
2022-09-28T15:38:44.410Z,2.53
2022-09-28T15:43:38.611Z,2.50
2022-09-28T15:48:47.510Z,2.92
2022-09-28T15:53:47.611Z,3.00
2022-09-28T15:58:44.124Z,3.45
2022-09-28T16:03:37.771Z,3.58
2022-09-28T16:08:37.272Z,3.92
2022-09-28T16:13:31.284Z,2.95
2022-09-28T16:18:26.036Z,3.25
2022-09-28T16:23:28.628Z,3.58
2022-09-28T16:28:34.681Z,4.18
2022-09-28T16:33:30.364Z,2.55
2022-09-28T16:38:25.116Z,3.45
2022-09-28T16:43:31.444Z,3.80
2022-09-28T16:48:49.389Z,4.00
2022-09-28T16:54:02.040Z,3.37
2022-09-28T16:58:56.785Z,3.15
2022-09-28T17:03:50.932Z,3.25
2022-09-28T17:08:45.845Z,2.67
2022-09-28T17:13:38.839Z,2.55
2022-09-28T17:18:33.082Z,3.30
2022-09-28T17:23:26.777Z,3.67
2022-09-28T17:28:44.861Z,3.47
2022-09-28T17:33:39.096Z,4.15
2022-09-28T17:38:32.973Z,4.85
2022-09-28T17:43:26.391Z,3.85
2022-09-28T17:48:25.147Z,3.72
2022-09-28T17:53:19.480Z,3.78
2022-09-28T17:58:20.225Z,4.80
2022-09-28T18:03:39.740Z,3.67
2022-09-28T18:08:33.549Z,3.88
2022-09-28T18:13:27.542Z,3.50
2022-09-28T18:18:26.189Z,4.30
2022-09-28T18:23:20.311Z,4.30
2022-09-28T18:28:15.765Z,3.47
2022-09-28T18:33:09.630Z,5.30
2022-09-28T18:38:05.913Z,4.43
2022-09-28T18:42:59.722Z,4.40
2022-09-28T18:47:54.016Z,4.72
2022-09-28T18:52:47.706Z,4.30
2022-09-28T18:57:43.221Z,4.25
2022-09-28T19:02:36.984Z,4.88
2022-09-28T19:07:32.218Z,4.55
2022-09-28T19:12:26.475Z,4.45
2022-09-28T19:17:21.381Z,3.35
2022-09-28T19:22:15.703Z,4.15
2022-09-28T19:27:09.879Z,3.67
2022-09-28T19:32:04.318Z,4.53
2022-09-28T19:36:58.061Z,4.15
2022-09-28T19:41:55.225Z,5.32
2022-09-28T19:46:49.685Z,5.30
2022-09-28T19:52:08.477Z,4.25
2022-09-28T19:56:58.401Z,3.67
2022-09-28T20:01:53.628Z,3.28
2022-09-28T20:06:47.733Z,4.40
2022-09-28T20:11:42.453Z,4.05
2022-09-28T20:16:38.679Z,4.30
2022-09-28T20:21:32.380Z,4.07
2022-09-28T20:26:28.049Z,4.70
2022-09-28T20:31:27.099Z,4.10
2022-09-28T20:36:22.567Z,4.22
2022-09-28T20:41:19.992Z,4.13
2022-09-28T20:46:15.273Z,5.30
2022-09-28T20:51:17.825Z,4.35
2022-09-28T20:56:20.865Z,5.32
2022-09-28T21:01:26.112Z,5.10
2022-09-28T21:06:21.238Z,4.15
2022-09-28T21:11:15.436Z,5.30
2022-09-28T21:16:10.765Z,4.75
2022-09-28T21:21:08.024Z,4.65
2022-09-28T21:26:07.189Z,4.05
2022-09-28T21:35:54.448Z,4.80
2022-09-28T21:40:48.789Z,4.53
2022-09-28T21:45:42.996Z,4.70
2022-09-28T21:50:36.280Z,4.25
2022-09-28T21:55:29.914Z,4.63
2022-09-28T22:00:24.192Z,4.20
2022-09-28T22:05:19.888Z,4.80
2022-09-28T22:10:15.771Z,4.30
2022-09-28T22:15:12.023Z,4.45
2022-09-28T22:20:07.472Z,4.10
2022-09-28T22:25:01.251Z,4.25
2022-09-28T22:29:55.188Z,4.60
2022-09-28T22:34:48.968Z,4.30
2022-09-28T22:39:42.583Z,3.70
2022-09-28T22:44:36.763Z,4.35
2022-09-28T22:49:30.840Z,4.30
2022-09-28T22:54:25.094Z,4.47
2022-09-28T22:59:19.275Z,5.38
2022-09-28T23:04:14.008Z,5.32
2022-09-28T23:09:08.277Z,5.70
2022-09-28T23:14:02.245Z,5.03
2022-09-28T23:18:56.629Z,6.82
2022-09-28T23:23:55.845Z,6.57
2022-09-28T23:28:49.300Z,7.32
2022-09-28T23:33:42.798Z,5.75
2022-09-28T23:38:36.759Z,6.63
2022-09-28T23:43:30.549Z,5.97
2022-09-28T23:48:25.206Z,5.93
2022-09-28T23:53:19.298Z,5.80
2022-09-28T23:58:13.144Z,5.38
